createdAt,value
2022-09-26T00:02:04.693Z,15.53
2022-09-26T00:04:33.052Z,15.83
2022-09-26T00:07:00.874Z,15.85
2022-09-26T00:09:28.679Z,15.86
2022-09-26T00:11:56.305Z,15.83
2022-09-26T00:14:24.952Z,15.82
2022-09-26T00:16:52.683Z,15.82
2022-09-26T00:19:21.841Z,15.82
2022-09-26T00:21:49.449Z,15.81
2022-09-26T00:24:17.302Z,15.83
2022-09-26T00:26:44.946Z,15.86
2022-09-26T00:29:13.034Z,15.86
2022-09-26T00:31:41.740Z,15.87
2022-09-26T00:34:10.834Z,15.85
2022-09-26T00:36:39.774Z,15.85
2022-09-26T00:39:08.056Z,15.83
2022-09-26T00:41:35.949Z,15.67
2022-09-26T00:44:03.990Z,15.76
2022-09-26T00:46:33.609Z,15.73
2022-09-26T00:49:07.310Z,15.40
2022-09-26T00:51:36.185Z,15.73
2022-09-26T00:54:05.851Z,15.74
2022-09-26T00:56:34.540Z,15.77
2022-09-26T00:59:03.743Z,15.69
2022-09-26T01:01:31.520Z,15.73
2022-09-26T01:03:59.201Z,15.69
2022-09-26T01:06:26.900Z,15.68
2022-09-26T01:08:56.665Z,15.57
2022-09-26T01:11:25.811Z,15.65
2022-09-26T01:13:53.701Z,15.71
2022-09-26T01:16:21.468Z,15.74
2022-09-26T01:18:49.073Z,15.78
2022-09-26T01:21:54.208Z,15.83
2022-09-26T01:24:49.905Z,15.91
2022-09-26T01:27:43.376Z,15.92
2022-09-26T01:30:14.520Z,15.96
2022-09-26T01:33:19.468Z,16.01
2022-09-26T01:36:03.890Z,15.85
2022-09-26T01:38:38.892Z,15.80
2022-09-26T01:41:14.644Z,15.95
2022-09-26T01:43:47.429Z,16.14
2022-09-26T01:46:20.979Z,16.05
2022-09-26T01:48:51.717Z,16.05
2022-09-26T01:51:21.781Z,16.22
2022-09-26T01:53:52.046Z,16.18
2022-09-26T01:56:21.077Z,16.44
2022-09-26T01:58:50.851Z,16.41
2022-09-26T02:01:20.007Z,16.50
2022-09-26T02:03:49.191Z,16.50
2022-09-26T02:06:18.663Z,16.51
2022-09-26T02:08:47.243Z,16.43
2022-09-26T02:11:16.669Z,16.44
2022-09-26T02:13:47.107Z,16.45
2022-09-26T02:16:20.490Z,16.35
2022-09-26T02:18:49.295Z,16.45
2022-09-26T02:21:18.801Z,16.41
2022-09-26T02:23:46.553Z,16.38
2022-09-26T02:26:14.352Z,16.19
2022-09-26T02:28:41.973Z,16.32
2022-09-26T02:31:09.733Z,16.29
2022-09-26T02:33:38.704Z,16.31
2022-09-26T02:36:08.369Z,16.30
2022-09-26T02:38:35.962Z,16.29
2022-09-26T02:41:08.596Z,16.26
2022-09-26T02:43:51.196Z,16.27
2022-09-26T02:46:38.406Z,16.21
2022-09-26T02:49:15.160Z,16.18
2022-09-26T02:51:51.410Z,16.16
2022-09-26T02:54:23.339Z,15.72
2022-09-26T02:57:00.396Z,16.04
2022-09-26T02:59:31.021Z,16.02
2022-09-26T03:02:02.834Z,16.02
2022-09-26T03:04:33.582Z,16.01
2022-09-26T03:07:04.775Z,16.03
2022-09-26T03:09:32.466Z,15.94
2022-09-26T03:12:01.017Z,15.82
2022-09-26T03:14:28.981Z,15.82
2022-09-26T03:16:56.849Z,15.84
2022-09-26T03:19:27.379Z,15.86
2022-09-26T03:21:56.499Z,15.82
2022-09-26T03:24:24.285Z,15.78
2022-09-26T03:26:52.028Z,15.69
2022-09-26T03:29:20.017Z,15.67
2022-09-26T03:31:50.221Z,15.41
2022-09-26T03:34:18.206Z,15.65
2022-09-26T03:36:46.586Z,15.62
2022-09-26T03:39:15.781Z,15.62
2022-09-26T03:41:43.597Z,15.62
2022-09-26T03:44:11.845Z,15.62
2022-09-26T03:46:40.274Z,15.58
2022-09-26T03:49:07.934Z,15.41
2022-09-26T03:51:35.618Z,15.51
2022-09-26T03:54:03.431Z,15.39
2022-09-26T03:56:32.435Z,15.53
2022-09-26T03:59:00.171Z,15.50
2022-09-26T04:01:28.654Z,15.52
2022-09-26T04:03:57.536Z,15.52
2022-09-26T04:06:25.228Z,15.33
2022-09-26T04:08:53.497Z,15.47
2022-09-26T04:11:22.879Z,15.49
2022-09-26T04:13:55.025Z,15.48
2022-09-26T04:16:23.659Z,15.47
2022-09-26T04:18:56.185Z,15.39
2022-09-26T04:21:23.920Z,15.47
2022-09-26T04:23:51.730Z,15.48
2022-09-26T04:26:23.377Z,15.50
2022-09-26T04:28:52.266Z,15.30
2022-09-26T04:31:21.694Z,15.49
2022-09-26T04:33:49.574Z,15.53
2022-09-26T04:36:17.403Z,15.58
2022-09-26T04:38:45.147Z,15.55
2022-09-26T04:41:13.605Z,15.57
2022-09-26T04:43:41.373Z,15.50
2022-09-26T04:46:09.858Z,15.49
2022-09-26T04:48:38.982Z,15.49
2022-09-26T04:51:07.249Z,15.48
2022-09-26T04:53:34.875Z,15.48
2022-09-26T04:56:03.121Z,15.47
2022-09-26T04:58:30.900Z,15.48
2022-09-26T05:01:02.937Z,15.43
2022-09-26T05:03:30.731Z,15.43
2022-09-26T05:06:00.107Z,15.34
2022-09-26T05:08:28.142Z,15.40
2022-09-26T05:10:56.241Z,15.39
2022-09-26T05:13:23.984Z,15.41
2022-09-26T05:15:53.219Z,15.37
2022-09-26T05:18:21.340Z,15.39
2022-09-26T05:20:49.108Z,15.39
2022-09-26T05:23:44.354Z,15.37
2022-09-26T05:26:21.135Z,15.37
2022-09-26T05:31:41.756Z,15.37
2022-09-26T05:34:15.508Z,15.35
2022-09-26T05:36:46.340Z,15.35
2022-09-26T05:39:32.781Z,15.41
2022-09-26T05:42:00.534Z,15.40
2022-09-26T05:44:30.824Z,15.38
2022-09-26T05:46:59.073Z,15.40
2022-09-26T05:49:27.848Z,15.41
2022-09-26T05:51:55.471Z,15.46
2022-09-26T05:54:24.607Z,15.25
2022-09-26T05:56:52.226Z,15.38
2022-09-26T05:59:20.001Z,15.49
2022-09-26T06:01:47.937Z,15.45
2022-09-26T06:04:15.681Z,15.33
2022-09-26T06:06:44.177Z,15.57
2022-09-26T06:09:11.876Z,15.55
2022-09-26T06:11:40.946Z,15.65
2022-09-26T06:14:10.091Z,15.61
2022-09-26T06:16:38.866Z,15.74
2022-09-26T06:19:08.044Z,15.78
2022-09-26T06:21:41.209Z,15.78
2022-09-26T06:24:09.103Z,15.89
2022-09-26T06:26:37.628Z,15.90
2022-09-26T06:29:07.460Z,15.96
2022-09-26T06:31:35.244Z,15.98
2022-09-26T06:34:03.238Z,15.99
2022-09-26T06:36:31.464Z,15.71
2022-09-26T06:38:59.178Z,15.96
2022-09-26T06:41:27.524Z,15.99
2022-09-26T06:43:55.346Z,16.07
2022-09-26T06:46:24.436Z,16.12
2022-09-26T06:48:52.078Z,16.18
2022-09-26T06:51:19.983Z,16.20
2022-09-26T06:53:47.705Z,16.27
2022-09-26T06:56:15.426Z,16.26
2022-09-26T06:58:43.010Z,16.28
2022-09-26T07:01:11.881Z,16.31
2022-09-26T07:03:45.421Z,16.30
2022-09-26T07:06:14.033Z,16.34
2022-09-26T07:09:01.579Z,16.37
2022-09-26T07:11:50.434Z,16.36
2022-09-26T07:14:17.735Z,16.47
2022-09-26T07:16:45.443Z,16.55
2022-09-26T07:19:16.122Z,16.51
2022-09-26T07:21:43.832Z,16.65
2022-09-26T07:24:14.075Z,16.73
2022-09-26T07:26:41.913Z,16.78
2022-09-26T07:29:09.856Z,16.73
2022-09-26T07:31:38.827Z,16.71
2022-09-26T07:34:08.399Z,16.84
2022-09-26T07:36:39.625Z,16.83
2022-09-26T07:39:07.273Z,16.73
2022-09-26T07:41:35.020Z,16.83
2022-09-26T07:47:08.000Z,16.87
2022-09-26T07:49:53.222Z,16.83
2022-09-26T07:52:22.553Z,16.84
2022-09-26T07:54:50.438Z,16.88
2022-09-26T07:57:19.359Z,16.91
2022-09-26T07:59:49.636Z,16.97
2022-09-26T08:02:21.930Z,16.98
2022-09-26T08:04:49.816Z,17.05
2022-09-26T08:07:17.459Z,17.01
2022-09-26T08:09:47.459Z,17.08
2022-09-26T08:12:15.591Z,17.11
2022-09-26T08:14:43.152Z,17.07
2022-09-26T08:17:14.429Z,17.15
2022-09-26T08:19:42.282Z,17.15
2022-09-26T08:22:10.065Z,17.19
2022-09-26T08:24:37.698Z,17.21
2022-09-26T08:27:06.842Z,17.15
2022-09-26T08:29:37.402Z,17.14
2022-09-26T08:32:05.066Z,17.27
2022-09-26T08:34:34.986Z,17.30
2022-09-26T08:37:02.993Z,17.35
2022-09-26T08:39:33.410Z,17.28
2022-09-26T08:42:17.552Z,17.54
2022-09-26T08:44:56.801Z,17.57
2022-09-26T08:47:32.919Z,17.70
2022-09-26T08:50:07.793Z,17.78
2022-09-26T08:52:37.977Z,17.81
2022-09-26T08:55:14.628Z,17.76
2022-09-26T08:57:45.566Z,17.82
2022-09-26T09:00:21.061Z,17.73
2022-09-26T09:03:08.625Z,17.66
2022-09-26T09:05:39.118Z,17.53
2022-09-26T09:08:11.440Z,17.43
2022-09-26T09:10:45.264Z,17.03
2022-09-26T09:13:23.411Z,17.23
2022-09-26T09:16:01.632Z,17.17
2022-09-26T09:18:32.424Z,17.15
2022-09-26T09:21:02.932Z,16.95
2022-09-26T09:23:38.260Z,17.00
2022-09-26T09:29:31.882Z,16.94
2022-09-26T09:31:59.518Z,16.89
2022-09-26T09:34:28.920Z,16.76
2022-09-26T09:36:58.128Z,16.74
2022-09-26T09:39:28.824Z,16.42
2022-09-26T09:41:57.233Z,16.37
2022-09-26T09:44:31.135Z,16.43
2022-09-26T09:46:59.269Z,16.68
2022-09-26T09:49:27.041Z,16.66
2022-09-26T09:52:04.994Z,16.65
2022-09-26T09:54:55.481Z,16.63
2022-09-26T09:57:51.913Z,16.62
2022-09-26T10:00:22.145Z,16.55
2022-09-26T10:02:54.832Z,16.44
2022-09-26T10:05:28.468Z,16.33
2022-09-26T10:07:58.556Z,16.19
2022-09-26T10:10:29.153Z,16.10
2022-09-26T10:12:57.138Z,16.05
2022-09-26T10:15:27.349Z,16.09
2022-09-26T10:18:23.393Z,16.12
2022-09-26T10:21:18.907Z,16.17
2022-09-26T10:23:47.595Z,16.20
2022-09-26T10:26:15.434Z,16.14
2022-09-26T10:28:45.119Z,16.27
2022-09-26T10:31:22.441Z,16.31
2022-09-26T10:33:50.519Z,16.26
2022-09-26T10:36:20.719Z,16.24
2022-09-26T10:39:11.355Z,16.20
2022-09-26T10:41:43.521Z,16.12
2022-09-26T10:44:22.572Z,16.11
2022-09-26T10:46:53.357Z,16.13
2022-09-26T10:49:23.595Z,16.18
2022-09-26T10:51:54.525Z,15.80
2022-09-26T10:54:23.437Z,16.15
2022-09-26T10:56:54.132Z,16.09
2022-09-26T10:59:26.786Z,16.28
2022-09-26T11:01:58.952Z,16.34
2022-09-26T11:04:45.394Z,16.45
2022-09-26T11:07:24.754Z,16.37
2022-09-26T11:09:52.849Z,16.49
2022-09-26T11:12:25.249Z,16.41
2022-09-26T11:14:56.922Z,16.44
2022-09-26T11:17:44.857Z,16.45
2022-09-26T11:20:17.534Z,16.60
2022-09-26T11:22:48.718Z,16.70
2022-09-26T11:25:19.427Z,17.30
2022-09-26T11:27:48.264Z,17.48
2022-09-26T11:30:19.413Z,18.08
2022-09-26T11:32:50.252Z,18.32
2022-09-26T11:35:21.045Z,18.60
2022-09-26T11:37:59.169Z,19.20
2022-09-26T11:40:36.893Z,19.52
2022-09-26T11:43:11.026Z,19.67
2022-09-26T11:45:47.337Z,19.66
2022-09-26T11:48:29.942Z,19.69
2022-09-26T11:50:58.847Z,19.61
2022-09-26T11:53:39.820Z,19.39
2022-09-26T11:56:15.848Z,19.17
2022-09-26T11:58:46.679Z,19.11
2022-09-26T12:04:21.726Z,18.96
2022-09-26T12:06:53.490Z,18.35
2022-09-26T12:09:27.514Z,18.55
2022-09-26T12:12:00.469Z,18.14
2022-09-26T12:14:39.248Z,18.41
2022-09-26T12:17:10.164Z,18.87
2022-09-26T12:19:46.648Z,18.70
2022-09-26T12:22:33.324Z,19.60
2022-09-26T12:25:36.019Z,19.94
2022-09-26T12:28:12.527Z,20.07
2022-09-26T12:30:43.369Z,19.87
2022-09-26T12:33:27.668Z,20.49
2022-09-26T12:35:58.184Z,20.16
2022-09-26T12:38:47.032Z,20.32
2022-09-26T12:41:23.122Z,20.12
2022-09-26T12:43:58.934Z,19.85
2022-09-26T12:46:48.902Z,20.05
2022-09-26T12:49:29.893Z,19.64
2022-09-26T12:52:02.120Z,19.53
2022-09-26T12:54:35.559Z,19.17
2022-09-26T12:57:09.731Z,19.19
2022-09-26T12:59:53.158Z,19.11
2022-09-26T13:02:39.260Z,18.89
2022-09-26T13:05:30.397Z,18.56
2022-09-26T13:08:05.883Z,18.17
2022-09-26T13:10:39.265Z,18.08
2022-09-26T13:13:35.410Z,17.98
2022-09-26T13:16:11.234Z,17.67
2022-09-26T13:18:45.197Z,17.39
2022-09-26T13:21:14.527Z,17.67
2022-09-26T13:23:53.649Z,17.55
2022-09-26T13:26:25.922Z,17.49
2022-09-26T13:29:15.770Z,17.38
2022-09-26T13:31:45.967Z,17.26
2022-09-26T13:34:15.616Z,17.48
2022-09-26T13:36:43.305Z,17.69
2022-09-26T13:39:14.422Z,17.35
2022-09-26T13:41:45.253Z,17.69
2022-09-26T13:44:28.414Z,17.70
2022-09-26T13:47:05.329Z,17.74
2022-09-26T13:49:40.174Z,17.83
2022-09-26T13:52:14.618Z,17.81
2022-09-26T13:54:57.164Z,17.54
2022-09-26T13:57:31.862Z,17.82
2022-09-26T13:59:59.622Z,17.83
2022-09-26T14:02:29.067Z,17.37
2022-09-26T14:05:46.311Z,17.70
2022-09-26T14:08:49.645Z,17.67
2022-09-26T14:11:27.755Z,16.90
2022-09-26T14:14:24.615Z,17.64
2022-09-26T14:16:52.639Z,17.60
2022-09-26T14:19:26.154Z,17.60
2022-09-26T14:22:02.569Z,17.17
2022-09-26T14:24:35.791Z,17.45
2022-09-26T14:27:21.101Z,16.99
2022-09-26T14:29:51.479Z,17.22
2022-09-26T14:32:19.991Z,16.76
2022-09-26T14:34:48.797Z,17.25
2022-09-26T14:37:28.023Z,16.94
2022-09-26T14:40:04.021Z,17.07
2022-09-26T14:42:34.982Z,16.39
2022-09-26T14:45:03.680Z,16.96
2022-09-26T14:47:38.692Z,16.41
2022-09-26T14:50:07.437Z,16.06
2022-09-26T14:52:35.439Z,16.44
2022-09-26T14:55:03.173Z,15.80
2022-09-26T14:57:33.530Z,16.19
2022-09-26T15:00:01.953Z,16.13
2022-09-26T15:02:40.868Z,15.92
2022-09-26T15:05:31.815Z,16.04
2022-09-26T15:08:00.871Z,16.01
2022-09-26T15:10:41.182Z,15.31
2022-09-26T15:13:23.250Z,15.10
2022-09-26T15:15:55.683Z,14.98
2022-09-26T15:18:32.362Z,15.81
2022-09-26T15:21:04.414Z,15.17
2022-09-26T15:23:33.570Z,15.90
2022-09-26T15:26:02.603Z,15.82
2022-09-26T15:28:34.440Z,15.51
2022-09-26T15:31:25.245Z,15.82
2022-09-26T15:34:00.283Z,15.72
2022-09-26T15:36:35.277Z,15.67
2022-09-26T15:39:03.611Z,15.49
2022-09-26T15:41:48.785Z,14.94
2022-09-26T15:44:21.492Z,15.48
2022-09-26T15:46:50.441Z,14.97
2022-09-26T15:49:22.189Z,15.53
2022-09-26T15:51:52.955Z,15.68
2022-09-26T15:57:55.075Z,15.77
2022-09-26T16:00:24.302Z,15.60
2022-09-26T16:02:53.689Z,15.66
2022-09-26T16:05:21.351Z,15.69
2022-09-26T16:07:49.964Z,15.71
2022-09-26T16:10:22.796Z,14.85
2022-09-26T16:12:51.679Z,15.60
2022-09-26T16:15:28.037Z,13.90
2022-09-26T16:18:04.058Z,15.55
2022-09-26T16:21:06.435Z,13.33
2022-09-26T16:23:48.230Z,14.89
2022-09-26T16:26:46.405Z,12.76
2022-09-26T16:30:53.492Z,14.53
2022-09-26T16:34:01.351Z,14.61
2022-09-26T16:37:20.892Z,14.39
2022-09-26T16:40:49.942Z,12.28
2022-09-26T16:46:37.715Z,13.69
2022-09-26T16:49:07.239Z,14.55
2022-09-26T16:51:39.857Z,13.55
2022-09-26T16:56:42.361Z,15.08
2022-09-26T16:59:16.553Z,15.15
2022-09-26T17:01:56.246Z,15.23
2022-09-26T17:04:26.328Z,15.24
2022-09-26T17:06:54.040Z,15.28
2022-09-26T17:09:22.632Z,15.20
2022-09-26T17:11:51.185Z,14.98
2022-09-26T17:14:22.793Z,15.02
2022-09-26T17:16:54.892Z,15.12
2022-09-26T17:19:23.776Z,15.08
2022-09-26T17:21:51.666Z,14.87
2022-09-26T17:24:21.138Z,14.99
2022-09-26T17:26:53.347Z,14.98
2022-09-26T17:29:24.642Z,14.90
2022-09-26T17:31:53.150Z,15.00
2022-09-26T17:34:21.041Z,14.91
2022-09-26T17:36:49.388Z,14.67
2022-09-26T17:39:18.380Z,14.72
2022-09-26T17:41:45.968Z,14.88
2022-09-26T17:44:13.667Z,14.87
2022-09-26T17:46:48.157Z,14.85
2022-09-26T17:49:18.430Z,14.87
2022-09-26T17:51:48.042Z,14.83
2022-09-26T17:54:16.800Z,14.63
2022-09-26T17:56:44.575Z,14.84
2022-09-26T17:59:20.727Z,14.78
2022-09-26T18:01:52.307Z,14.81
2022-09-26T18:04:23.093Z,14.81
2022-09-26T18:06:50.818Z,14.50
2022-09-26T18:09:18.669Z,14.76
2022-09-26T18:11:48.299Z,14.68
2022-09-26T18:14:19.032Z,14.61
2022-09-26T18:16:49.042Z,14.70
2022-09-26T18:19:16.722Z,14.65
2022-09-26T18:21:44.367Z,14.70
2022-09-26T18:24:18.598Z,14.62
2022-09-26T18:26:50.125Z,14.76
2022-09-26T18:29:20.624Z,14.72
2022-09-26T18:31:49.703Z,14.69
2022-09-26T18:34:20.258Z,14.65
2022-09-26T18:36:48.815Z,14.59
2022-09-26T18:39:16.780Z,14.72
2022-09-26T18:41:45.137Z,14.68
2022-09-26T18:44:16.087Z,14.81
2022-09-26T18:46:46.209Z,14.64
2022-09-26T18:49:15.273Z,14.72
2022-09-26T18:51:43.527Z,14.87
2022-09-26T18:54:13.375Z,14.65
2022-09-26T18:56:58.634Z,14.80
2022-09-26T18:59:28.991Z,14.80
2022-09-26T19:01:59.283Z,14.85
2022-09-26T19:04:28.388Z,14.89
2022-09-26T19:07:01.951Z,14.66
2022-09-26T19:09:32.921Z,14.86
2022-09-26T19:12:00.645Z,14.89
2022-09-26T19:14:29.491Z,14.94
2022-09-26T19:16:57.148Z,14.97
2022-09-26T19:19:24.955Z,14.95
2022-09-26T19:21:54.579Z,15.01
2022-09-26T19:24:26.274Z,15.03
2022-09-26T19:26:55.157Z,15.08
2022-09-26T19:29:27.645Z,15.06
2022-09-26T19:31:55.229Z,15.10
2022-09-26T19:34:23.052Z,15.11
2022-09-26T19:36:52.152Z,15.13
2022-09-26T19:39:21.449Z,15.06
2022-09-26T19:41:49.207Z,15.20
2022-09-26T19:44:17.102Z,15.25
2022-09-26T19:46:44.956Z,15.31
2022-09-26T19:49:16.421Z,15.35
2022-09-26T19:51:44.299Z,15.33
2022-09-26T19:54:17.678Z,15.29
2022-09-26T19:56:47.160Z,15.29
2022-09-26T19:59:16.325Z,15.20
2022-09-26T20:01:45.908Z,15.28
2022-09-26T20:04:15.885Z,15.31
2022-09-26T20:06:43.574Z,15.34
2022-09-26T20:09:18.563Z,15.37
2022-09-26T20:11:47.546Z,15.41
2022-09-26T20:14:24.515Z,15.43
2022-09-26T20:16:52.742Z,15.30
2022-09-26T20:19:27.535Z,15.41
2022-09-26T20:21:55.198Z,15.38
2022-09-26T20:24:22.917Z,15.49
2022-09-26T20:26:52.431Z,15.47
2022-09-26T20:29:20.102Z,15.54
2022-09-26T20:31:47.830Z,15.57
2022-09-26T20:34:17.218Z,15.57
2022-09-26T20:36:47.409Z,15.41
2022-09-26T20:39:16.333Z,15.55
2022-09-26T20:41:45.273Z,15.57
2022-09-26T20:44:16.163Z,15.55
2022-09-26T20:46:49.383Z,15.37
2022-09-26T20:49:19.032Z,15.31
2022-09-26T20:51:46.864Z,15.54
2022-09-26T20:54:20.460Z,15.53
2022-09-26T20:56:48.832Z,15.51
2022-09-26T20:59:17.962Z,15.47
2022-09-26T21:01:45.612Z,15.48
2022-09-26T21:04:14.614Z,15.45
2022-09-26T21:06:42.396Z,15.46
2022-09-26T21:09:14.488Z,15.47
2022-09-26T21:11:42.495Z,15.52
2022-09-26T21:14:10.282Z,15.54
2022-09-26T21:16:43.850Z,15.50
2022-09-26T21:19:12.217Z,15.53
2022-09-26T21:21:40.044Z,15.54
2022-09-26T21:24:07.814Z,15.56
2022-09-26T21:26:35.524Z,15.58
2022-09-26T21:29:05.283Z,15.59
2022-09-26T21:31:34.534Z,15.38
2022-09-26T21:34:03.531Z,15.64
2022-09-26T21:36:34.923Z,15.61
2022-09-26T21:39:02.999Z,15.63
2022-09-26T21:41:30.749Z,15.61
2022-09-26T21:43:59.495Z,15.35
2022-09-26T21:46:27.307Z,15.58
2022-09-26T21:48:55.900Z,15.54
2022-09-26T21:51:26.306Z,15.60
2022-09-26T21:53:57.063Z,15.64
2022-09-26T21:56:27.216Z,15.68
2022-09-26T21:58:55.053Z,15.71
2022-09-26T22:01:22.667Z,15.77
2022-09-26T22:03:50.416Z,15.74
2022-09-26T22:06:18.008Z,15.79
2022-09-26T22:08:47.100Z,15.78
2022-09-26T22:11:14.817Z,15.82
2022-09-26T22:13:42.578Z,15.83
2022-09-26T22:16:11.182Z,15.82
2022-09-26T22:18:39.125Z,15.82
2022-09-26T22:21:06.848Z,15.49
2022-09-26T22:23:34.578Z,15.81
2022-09-26T22:26:03.836Z,15.66
2022-09-26T22:28:31.813Z,15.75
2022-09-26T22:31:01.678Z,15.79
2022-09-26T22:33:29.583Z,15.73
2022-09-26T22:35:57.318Z,15.81
2022-09-26T22:38:25.088Z,15.82
2022-09-26T22:40:56.982Z,15.81
2022-09-26T22:43:26.233Z,15.82
2022-09-26T22:45:53.874Z,15.81
2022-09-26T22:48:21.851Z,15.81
2022-09-26T22:50:49.625Z,15.80
2022-09-26T22:53:17.406Z,15.77
2022-09-26T22:58:12.830Z,15.73
2022-09-26T23:00:41.857Z,15.74
2022-09-26T23:03:09.451Z,15.77
2022-09-26T23:05:37.135Z,15.78
2022-09-26T23:08:05.559Z,15.67
2022-09-26T23:10:33.321Z,15.77
2022-09-26T23:13:00.888Z,15.79
2022-09-26T23:15:28.580Z,15.77
2022-09-26T23:17:57.562Z,15.69
2022-09-26T23:20:25.245Z,15.73
2022-09-26T23:22:52.808Z,15.77
2022-09-26T23:25:20.579Z,15.76
2022-09-26T23:27:48.189Z,15.77
2022-09-26T23:30:15.882Z,15.77
2022-09-26T23:32:43.537Z,15.78
2022-09-26T23:35:12.552Z,15.72
2022-09-26T23:37:40.208Z,15.68
2022-09-26T23:40:08.609Z,15.70
2022-09-26T23:42:36.376Z,15.68
2022-09-26T23:45:04.274Z,15.68
2022-09-26T23:47:31.963Z,15.68
2022-09-26T23:49:59.563Z,15.69
2022-09-26T23:52:28.775Z,15.69
2022-09-26T23:54:56.380Z,15.66
2022-09-26T23:57:24.522Z,15.68
2022-09-26T23:59:52.210Z,15.67
